createdAt,value
2023-04-27T00:02:08.046Z,7.15
2023-04-27T00:04:54.557Z,8.43
2023-04-27T00:07:41.298Z,7.43
2023-04-27T00:10:27.666Z,7.72
2023-04-27T00:13:13.396Z,8.10
2023-04-27T00:16:03.450Z,8.10
2023-04-27T00:18:49.279Z,7.13
2023-04-27T00:21:36.121Z,7.18
2023-04-27T00:24:21.883Z,7.68
2023-04-27T00:27:08.360Z,8.10
2023-04-27T00:29:54.464Z,7.93
2023-04-27T00:32:42.438Z,7.95
2023-04-27T00:35:28.439Z,8.60
2023-04-27T00:38:14.877Z,8.98
2023-04-27T00:41:04.045Z,8.43
2023-04-27T00:43:50.115Z,8.70
2023-04-27T00:46:36.790Z,7.65
2023-04-27T00:49:23.857Z,8.07
2023-04-27T00:52:09.942Z,7.82
2023-04-27T00:54:57.764Z,7.57
2023-04-27T00:57:43.861Z,6.97
2023-04-27T01:00:30.380Z,7.60
2023-04-27T01:03:17.128Z,7.72
2023-04-27T01:06:04.125Z,8.30
2023-04-27T01:08:50.327Z,7.80
2023-04-27T01:11:36.555Z,8.65
2023-04-27T01:14:22.655Z,7.55
2023-04-27T01:17:11.026Z,8.15
2023-04-27T01:19:57.906Z,7.65
2023-04-27T01:22:44.099Z,8.05
2023-04-27T01:25:29.842Z,8.25
2023-04-27T01:28:16.280Z,8.43
2023-04-27T01:31:01.956Z,7.88
2023-04-27T01:33:48.383Z,8.07
2023-04-27T01:36:34.436Z,7.90
2023-04-27T01:39:20.777Z,8.18
2023-04-27T01:42:07.087Z,7.40
2023-04-27T01:44:54.613Z,7.85
2023-04-27T01:47:41.624Z,8.10
2023-04-27T01:50:28.535Z,8.13
2023-04-27T01:53:14.626Z,7.85
2023-04-27T01:56:00.908Z,7.82
2023-04-27T01:58:47.116Z,8.45
2023-04-27T02:01:33.382Z,8.23
2023-04-27T02:04:19.766Z,7.97
2023-04-27T02:07:06.628Z,7.47
2023-04-27T02:09:54.407Z,7.85
2023-04-27T02:12:40.701Z,8.23
2023-04-27T02:15:27.285Z,7.90
2023-04-27T02:18:15.823Z,8.00
2023-04-27T02:21:01.912Z,7.57
2023-04-27T02:23:48.094Z,8.32
2023-04-27T02:26:33.953Z,7.93
2023-04-27T02:29:20.531Z,7.97
2023-04-27T02:32:07.139Z,7.22
2023-04-27T02:34:53.155Z,7.72
2023-04-27T02:37:38.762Z,6.93
2023-04-27T02:40:24.539Z,7.00
2023-04-27T02:43:10.741Z,7.30
2023-04-27T02:45:57.448Z,7.10
2023-04-27T02:48:43.492Z,7.10
2023-04-27T02:51:29.524Z,7.35
2023-04-27T02:54:15.281Z,7.07
2023-04-27T02:57:02.419Z,7.22
2023-04-27T02:59:48.626Z,7.30
2023-04-27T03:02:35.323Z,7.22
2023-04-27T03:05:21.431Z,7.05
2023-04-27T03:08:07.790Z,7.22
2023-04-27T03:10:54.763Z,6.80
2023-04-27T03:13:43.539Z,6.38
2023-04-27T03:16:32.226Z,7.35
2023-04-27T03:19:18.729Z,6.65
2023-04-27T03:22:04.266Z,6.95
2023-04-27T03:24:50.436Z,6.65
2023-04-27T03:27:36.779Z,6.63
2023-04-27T03:30:23.076Z,6.32
2023-04-27T03:33:09.299Z,6.55
2023-04-27T03:35:59.184Z,6.10
2023-04-27T03:38:44.866Z,6.75
2023-04-27T03:41:31.061Z,6.03
2023-04-27T03:44:17.131Z,6.00
2023-04-27T03:47:03.777Z,6.65
2023-04-27T03:49:50.192Z,6.40
2023-04-27T03:52:36.298Z,6.38
2023-04-27T03:55:23.559Z,6.38
2023-04-27T03:58:10.850Z,6.40
2023-04-27T04:01:03.875Z,7.28
2023-04-27T04:03:50.733Z,6.72
2023-04-27T04:06:37.432Z,6.20
2023-04-27T04:09:24.117Z,6.68
2023-04-27T04:12:10.178Z,6.40
2023-04-27T04:14:56.699Z,6.22
2023-04-27T04:17:42.633Z,6.70
2023-04-27T04:20:29.114Z,6.05
2023-04-27T04:23:14.701Z,6.20
2023-04-27T04:26:02.290Z,6.57
2023-04-27T04:28:52.533Z,6.90
2023-04-27T04:31:39.484Z,6.07
2023-04-27T04:34:25.431Z,6.70
2023-04-27T04:37:11.927Z,6.57
2023-04-27T04:39:58.100Z,6.18
2023-04-27T04:42:45.000Z,6.20
2023-04-27T04:45:31.224Z,6.50
2023-04-27T04:48:17.863Z,6.20
2023-04-27T04:51:08.424Z,5.80
2023-04-27T04:53:55.024Z,5.45
2023-04-27T04:56:42.651Z,5.88
2023-04-27T04:59:33.607Z,5.07
2023-04-27T05:02:19.510Z,5.20
2023-04-27T05:05:06.047Z,5.20
2023-04-27T05:07:51.998Z,4.78
2023-04-27T05:10:37.968Z,4.25
2023-04-27T05:13:24.947Z,4.88
2023-04-27T05:16:11.180Z,4.85
2023-04-27T05:18:57.128Z,4.53
2023-04-27T05:21:43.261Z,4.22
2023-04-27T05:24:28.900Z,4.38
2023-04-27T05:27:15.082Z,4.60
2023-04-27T05:30:01.099Z,4.35
2023-04-27T05:32:46.854Z,4.40
2023-04-27T05:35:33.460Z,4.63
2023-04-27T05:38:20.094Z,4.20
2023-04-27T05:41:06.202Z,4.00
2023-04-27T05:43:53.619Z,3.95
2023-04-27T05:46:39.930Z,3.85
2023-04-27T05:49:26.783Z,3.95
2023-04-27T05:52:12.635Z,4.80
2023-04-27T05:54:59.269Z,4.20
2023-04-27T05:57:47.673Z,4.63
2023-04-27T06:00:36.928Z,3.80
2023-04-27T06:03:22.878Z,4.10
2023-04-27T06:06:09.170Z,4.68
2023-04-27T06:08:55.022Z,3.78
2023-04-27T06:11:41.353Z,3.30
2023-04-27T06:14:27.715Z,3.78
2023-04-27T06:17:14.093Z,3.10
2023-04-27T06:19:59.773Z,3.35
2023-04-27T06:22:46.923Z,3.38
2023-04-27T06:25:32.718Z,3.30
2023-04-27T06:28:18.792Z,2.88
2023-04-27T06:31:05.057Z,3.80
2023-04-27T06:33:51.133Z,3.47
2023-04-27T06:36:37.072Z,3.50
2023-04-27T06:39:23.010Z,4.10
2023-04-27T06:42:08.799Z,3.35
2023-04-27T06:44:56.425Z,2.85
2023-04-27T06:47:42.516Z,3.40
2023-04-27T06:50:29.613Z,3.25
2023-04-27T06:53:17.948Z,3.28
2023-04-27T06:56:04.100Z,2.80
2023-04-27T06:58:50.351Z,2.60
2023-04-27T07:01:37.147Z,2.53
2023-04-27T07:04:23.748Z,2.75
2023-04-27T07:07:10.124Z,2.85
2023-04-27T07:09:56.241Z,2.13
2023-04-27T07:12:42.860Z,2.00
2023-04-27T07:15:28.973Z,2.00
2023-04-27T07:18:15.163Z,2.60
2023-04-27T07:21:02.059Z,2.30
2023-04-27T07:23:47.921Z,2.20
2023-04-27T07:26:33.505Z,1.90
2023-04-27T07:29:27.101Z,2.17
2023-04-27T07:32:13.588Z,2.13
2023-04-27T07:35:00.231Z,2.13
2023-04-27T07:37:45.983Z,2.17
2023-04-27T07:40:32.921Z,2.00
2023-04-27T07:43:19.423Z,2.25
2023-04-27T07:46:05.858Z,2.08
2023-04-27T07:48:52.442Z,1.85
2023-04-27T07:51:39.785Z,1.77
2023-04-27T07:54:26.376Z,1.60
2023-04-27T07:57:12.702Z,1.67
2023-04-27T07:59:58.786Z,1.98
2023-04-27T08:02:44.905Z,1.60
2023-04-27T08:05:31.464Z,2.13
2023-04-27T08:08:18.570Z,2.45
2023-04-27T08:11:04.529Z,2.30
2023-04-27T08:13:50.706Z,2.28
2023-04-27T08:16:37.131Z,2.38
2023-04-27T08:19:23.561Z,3.05
2023-04-27T08:22:09.587Z,2.25
2023-04-27T08:24:55.988Z,2.50
2023-04-27T08:27:42.093Z,2.17
2023-04-27T08:30:28.438Z,2.22
2023-04-27T08:33:14.592Z,2.67
2023-04-27T08:36:00.901Z,2.75
2023-04-27T08:38:46.563Z,2.85
2023-04-27T08:41:32.964Z,3.40
2023-04-27T08:44:19.182Z,2.67
2023-04-27T08:47:05.579Z,2.35
2023-04-27T08:49:51.592Z,2.13
2023-04-27T08:52:37.824Z,2.70
2023-04-27T08:55:24.311Z,2.78
2023-04-27T08:58:10.334Z,2.30
2023-04-27T09:00:56.593Z,2.28
2023-04-27T09:03:42.821Z,2.50
2023-04-27T09:06:33.703Z,2.22
2023-04-27T09:09:24.048Z,2.25
2023-04-27T09:12:20.556Z,1.90
2023-04-27T09:15:08.585Z,2.22
2023-04-27T09:17:56.662Z,1.80
2023-04-27T09:20:48.228Z,1.60
2023-04-27T09:23:36.474Z,1.92
2023-04-27T09:26:27.618Z,1.50
2023-04-27T09:29:13.837Z,1.90
2023-04-27T09:32:00.588Z,1.75
2023-04-27T09:34:46.539Z,1.80
2023-04-27T09:37:32.697Z,1.73
2023-04-27T09:40:23.802Z,1.85
2023-04-27T09:43:10.699Z,1.67
2023-04-27T09:45:57.365Z,1.60
2023-04-27T09:48:43.436Z,1.80
2023-04-27T09:51:29.656Z,1.60
2023-04-27T09:54:16.224Z,1.90
2023-04-27T09:57:41.095Z,1.58
2023-04-27T10:00:43.047Z,1.48
2023-04-27T10:03:47.647Z,1.60
2023-04-27T10:06:46.000Z,1.67
2023-04-27T10:09:42.683Z,2.00
2023-04-27T10:12:36.814Z,2.20
2023-04-27T10:15:27.357Z,1.80
2023-04-27T10:21:12.458Z,2.10
2023-04-27T10:24:08.690Z,2.15
2023-04-27T10:27:01.602Z,2.55
2023-04-27T10:29:48.344Z,1.80
2023-04-27T10:32:34.681Z,1.92
2023-04-27T10:35:22.238Z,1.92
2023-04-27T10:38:18.122Z,2.08
2023-04-27T10:41:07.295Z,2.00
2023-04-27T10:43:53.119Z,2.70
2023-04-27T10:46:50.539Z,2.40
2023-04-27T10:49:36.149Z,2.72
2023-04-27T10:52:22.726Z,1.92
2023-04-27T10:55:20.360Z,2.38
2023-04-27T10:58:07.029Z,2.35
2023-04-27T11:00:53.261Z,2.72
2023-04-27T11:03:39.635Z,2.55
2023-04-27T11:06:25.984Z,3.13
2023-04-27T11:09:12.522Z,2.65
2023-04-27T11:11:58.395Z,2.67
2023-04-27T11:14:44.748Z,2.00
2023-04-27T11:17:32.306Z,1.98
2023-04-27T11:20:25.637Z,1.83
2023-04-27T11:23:11.741Z,1.92
2023-04-27T11:25:57.888Z,2.00
2023-04-27T11:28:46.262Z,1.95
2023-04-27T11:31:43.871Z,2.38
2023-04-27T11:34:34.501Z,2.10
2023-04-27T11:37:27.725Z,1.80
2023-04-27T11:40:14.250Z,1.80
2023-04-27T11:43:03.226Z,1.90
2023-04-27T11:45:49.324Z,1.50
2023-04-27T11:48:37.634Z,2.53
2023-04-27T11:51:25.111Z,1.80
2023-04-27T11:54:11.742Z,1.90
2023-04-27T11:57:08.290Z,1.92
2023-04-27T11:59:55.185Z,2.53
2023-04-27T12:02:43.259Z,2.80
2023-04-27T12:05:30.038Z,2.08
2023-04-27T12:08:17.220Z,1.70
2023-04-27T12:11:03.953Z,2.17
2023-04-27T12:13:50.000Z,1.70
2023-04-27T12:16:36.712Z,1.60
2023-04-27T12:19:25.545Z,1.60
2023-04-27T12:22:12.047Z,1.90
2023-04-27T12:24:57.851Z,1.70
2023-04-27T12:27:47.410Z,1.60
2023-04-27T12:30:33.230Z,3.30
2023-04-27T12:33:19.659Z,2.40
2023-04-27T12:36:05.940Z,2.22
2023-04-27T12:38:51.910Z,2.42
2023-04-27T12:41:38.138Z,2.22
2023-04-27T12:44:24.804Z,2.20
2023-04-27T12:47:13.512Z,2.00
2023-04-27T12:50:03.934Z,2.20
2023-04-27T12:52:50.566Z,2.15
2023-04-27T12:55:37.434Z,2.10
2023-04-27T12:58:23.194Z,1.80
2023-04-27T13:01:14.848Z,1.70
2023-04-27T13:04:03.084Z,1.60
2023-04-27T13:06:49.377Z,2.10
2023-04-27T13:09:36.290Z,1.70
2023-04-27T13:12:22.588Z,2.53
2023-04-27T13:15:09.447Z,1.75
2023-04-27T13:17:58.266Z,1.70
2023-04-27T13:20:44.406Z,1.80
2023-04-27T13:23:30.901Z,1.73
2023-04-27T13:26:17.294Z,1.80
2023-04-27T13:29:04.830Z,1.52
2023-04-27T13:31:51.611Z,1.70
2023-04-27T13:34:37.542Z,1.65
2023-04-27T13:37:23.905Z,1.92
2023-04-27T13:40:13.892Z,1.88
2023-04-27T13:43:00.399Z,1.92
2023-04-27T13:45:46.402Z,1.50
2023-04-27T13:48:32.697Z,2.05
2023-04-27T13:51:18.952Z,2.22
2023-04-27T13:54:05.590Z,2.20
2023-04-27T13:56:51.542Z,2.10
2023-04-27T13:59:37.809Z,2.10
2023-04-27T14:02:24.784Z,1.90
2023-04-27T14:05:11.827Z,1.63
2023-04-27T14:07:57.592Z,1.80
2023-04-27T14:10:45.217Z,1.58
2023-04-27T14:13:30.810Z,2.28
2023-04-27T14:16:17.517Z,1.88
2023-04-27T14:19:03.019Z,1.80
2023-04-27T14:21:52.115Z,3.30
2023-04-27T14:24:38.107Z,3.25
2023-04-27T14:27:24.767Z,2.42
2023-04-27T14:30:10.671Z,4.95
2023-04-27T14:32:56.803Z,31.23
2023-04-27T14:35:42.545Z,5.50
2023-04-27T14:38:29.095Z,2.70
2023-04-27T14:41:14.885Z,3.17
2023-04-27T14:44:01.404Z,2.90
2023-04-27T14:46:47.326Z,3.00
2023-04-27T14:49:33.685Z,3.67
2023-04-27T14:52:19.131Z,2.85
2023-04-27T14:55:06.918Z,4.35
2023-04-27T14:57:53.243Z,2.58
2023-04-27T15:00:40.500Z,2.40
2023-04-27T15:03:27.876Z,2.50
2023-04-27T15:06:14.652Z,2.50
2023-04-27T15:09:00.599Z,2.53
2023-04-27T15:11:47.194Z,2.55
2023-04-27T15:14:32.764Z,2.33
2023-04-27T15:17:18.766Z,3.72
2023-04-27T15:20:08.336Z,2.83
2023-04-27T15:22:54.786Z,3.38
2023-04-27T15:25:40.138Z,2.30
2023-04-27T15:28:26.852Z,1.70
2023-04-27T15:31:12.934Z,2.30
2023-04-27T15:33:58.986Z,2.33
2023-04-27T15:36:45.716Z,2.75
2023-04-27T15:39:32.106Z,1.80
2023-04-27T15:42:17.710Z,2.13
2023-04-27T15:45:04.227Z,2.08
2023-04-27T15:47:50.017Z,3.88
2023-04-27T15:50:36.466Z,2.17
2023-04-27T15:53:22.577Z,2.15
2023-04-27T15:56:08.655Z,4.53
2023-04-27T15:58:54.806Z,1.92
2023-04-27T16:01:41.244Z,2.15
2023-04-27T16:04:27.182Z,2.33
2023-04-27T16:07:14.067Z,1.88
2023-04-27T16:10:00.139Z,2.08
2023-04-27T16:12:46.460Z,1.90
2023-04-27T16:15:32.869Z,2.70
2023-04-27T16:18:19.242Z,2.50
2023-04-27T16:21:05.414Z,2.70
2023-04-27T16:23:51.894Z,2.33
2023-04-27T16:26:37.521Z,2.92
2023-04-27T16:29:24.039Z,2.40
2023-04-27T16:32:11.098Z,3.47
2023-04-27T16:34:57.298Z,3.50
2023-04-27T16:37:43.362Z,4.57
2023-04-27T16:40:29.771Z,4.70
2023-04-27T16:43:15.862Z,3.83
2023-04-27T16:46:02.374Z,4.10
2023-04-27T16:48:48.425Z,4.60
2023-04-27T16:51:39.528Z,4.38
2023-04-27T16:57:11.164Z,3.30
2023-04-27T16:59:56.957Z,2.90
2023-04-27T17:02:43.955Z,2.70
2023-04-27T17:05:29.956Z,2.25
2023-04-27T17:08:17.103Z,2.60
2023-04-27T17:11:08.766Z,2.80
2023-04-27T17:13:55.316Z,2.60
2023-04-27T17:16:41.100Z,2.80
2023-04-27T17:19:28.633Z,2.70
2023-04-27T17:22:14.961Z,2.97
2023-04-27T17:25:01.338Z,2.97
2023-04-27T17:27:47.238Z,3.35
2023-04-27T17:30:33.891Z,3.30
2023-04-27T17:33:19.789Z,3.20
2023-04-27T17:36:09.225Z,3.50
2023-04-27T17:38:55.114Z,3.10
2023-04-27T17:41:42.123Z,3.20
2023-04-27T17:44:27.841Z,4.60
2023-04-27T17:47:14.283Z,4.60
2023-04-27T17:50:00.085Z,4.35
2023-04-27T17:52:47.660Z,4.85
2023-04-27T17:55:33.717Z,3.92
2023-04-27T17:58:20.187Z,4.70
2023-04-27T18:01:09.133Z,3.13
2023-04-27T18:03:55.825Z,3.00
2023-04-27T18:06:41.636Z,3.88
2023-04-27T18:09:31.536Z,4.55
2023-04-27T18:12:18.679Z,5.25
2023-04-27T18:15:08.540Z,4.57
2023-04-27T18:17:56.288Z,6.40
2023-04-27T18:20:45.024Z,4.70
2023-04-27T18:23:31.002Z,5.43
2023-04-27T18:26:17.410Z,4.65
2023-04-27T18:29:03.621Z,5.72
2023-04-27T18:31:50.086Z,4.90
2023-04-27T18:34:36.819Z,6.40
2023-04-27T18:37:23.168Z,7.97
2023-04-27T18:40:09.639Z,9.98
2023-04-27T18:42:55.770Z,8.90
2023-04-27T18:45:41.828Z,8.23
2023-04-27T18:48:28.155Z,8.35
2023-04-27T18:51:13.821Z,9.63
2023-04-27T18:53:59.953Z,10.85
2023-04-27T18:56:50.706Z,12.40
2023-04-27T18:59:38.602Z,13.95
2023-04-27T19:02:26.029Z,18.20
2023-04-27T19:05:13.713Z,21.35
2023-04-27T19:07:59.909Z,24.08
2023-04-27T19:10:46.867Z,24.42
2023-04-27T19:13:32.586Z,28.88
2023-04-27T19:16:19.068Z,33.22
2023-04-27T19:19:05.438Z,33.50
2023-04-27T19:21:51.230Z,36.08
2023-04-27T19:24:36.680Z,55.47
2023-04-27T19:27:22.720Z,47.00
2023-04-27T19:30:09.473Z,50.75
2023-04-27T19:32:55.921Z,51.15
2023-04-27T19:35:42.057Z,52.55
2023-04-27T19:38:28.519Z,51.53
2023-04-27T19:41:14.207Z,50.95
2023-04-27T19:44:00.719Z,52.88
2023-04-27T19:46:46.500Z,52.25
2023-04-27T19:49:33.225Z,52.17
2023-04-27T19:52:18.764Z,57.47
2023-04-27T19:55:05.772Z,57.42
2023-04-27T19:57:52.315Z,52.38
2023-04-27T20:00:38.058Z,45.45
2023-04-27T20:03:24.325Z,38.17
2023-04-27T20:06:11.352Z,33.42
2023-04-27T20:08:57.329Z,32.38
2023-04-27T20:11:44.223Z,29.45
2023-04-27T20:14:31.317Z,27.63
2023-04-27T20:17:17.524Z,27.25
2023-04-27T20:20:03.923Z,25.13
2023-04-27T20:22:50.553Z,25.02
2023-04-27T20:25:36.417Z,25.45
2023-04-27T20:28:25.045Z,27.75
2023-04-27T20:31:12.665Z,31.15
2023-04-27T20:33:58.983Z,29.83
2023-04-27T20:36:45.166Z,30.42
2023-04-27T20:39:31.582Z,30.83
2023-04-27T20:42:17.791Z,31.02
2023-04-27T20:45:05.638Z,31.60
2023-04-27T20:47:52.283Z,29.60
2023-04-27T20:50:39.505Z,28.75
2023-04-27T20:53:26.255Z,29.05
2023-04-27T20:56:12.847Z,26.65
2023-04-27T20:58:59.296Z,25.75
2023-04-27T21:01:45.916Z,24.55
2023-04-27T21:04:32.065Z,24.20
2023-04-27T21:07:18.035Z,23.90
2023-04-27T21:10:06.644Z,24.45
2023-04-27T21:12:53.211Z,25.60
2023-04-27T21:15:39.151Z,24.58
2023-04-27T21:18:30.415Z,22.55
2023-04-27T21:21:16.467Z,24.15
2023-04-27T21:24:07.904Z,22.20
2023-04-27T21:27:04.874Z,20.63
2023-04-27T21:29:51.029Z,20.25
2023-04-27T21:32:36.660Z,18.77
2023-04-27T21:35:22.925Z,20.10
2023-04-27T21:38:08.577Z,19.98
2023-04-27T21:40:54.284Z,18.73
2023-04-27T21:43:42.158Z,18.08
2023-04-27T21:46:29.432Z,18.85
2023-04-27T21:49:15.306Z,17.73
2023-04-27T21:52:01.439Z,16.33
2023-04-27T21:54:47.171Z,17.88
2023-04-27T21:57:33.213Z,16.95
2023-04-27T22:00:19.115Z,15.73
2023-04-27T22:03:06.018Z,16.25
2023-04-27T22:05:52.860Z,15.45
2023-04-27T22:08:39.213Z,16.30
2023-04-27T22:11:25.421Z,15.10
2023-04-27T22:14:11.741Z,16.20
2023-04-27T22:16:58.527Z,21.20
2023-04-27T22:19:44.573Z,21.95
2023-04-27T22:22:30.692Z,22.90
2023-04-27T22:25:16.710Z,23.13
2023-04-27T22:28:02.636Z,23.92
2023-04-27T22:30:48.549Z,27.35
2023-04-27T22:33:34.045Z,25.33
2023-04-27T22:36:20.335Z,25.20
2023-04-27T22:39:07.236Z,22.35
2023-04-27T22:41:53.145Z,24.90
2023-04-27T22:44:38.721Z,23.95
2023-04-27T22:47:25.572Z,24.73
2023-04-27T22:50:12.346Z,24.48
2023-04-27T22:52:58.508Z,24.52
2023-04-27T22:55:44.566Z,26.27
2023-04-27T22:58:30.939Z,24.67
2023-04-27T23:01:16.856Z,24.38
2023-04-27T23:04:03.150Z,22.25
2023-04-27T23:06:49.187Z,23.13
2023-04-27T23:09:35.316Z,20.25
2023-04-27T23:12:20.881Z,21.90
2023-04-27T23:15:08.061Z,21.85
2023-04-27T23:17:54.213Z,21.83
2023-04-27T23:20:40.712Z,20.77
2023-04-27T23:23:26.516Z,20.92
2023-04-27T23:26:16.527Z,22.38
2023-04-27T23:29:02.808Z,23.15
2023-04-27T23:31:48.784Z,21.65
2023-04-27T23:34:34.891Z,21.80
2023-04-27T23:37:22.532Z,29.65
2023-04-27T23:40:08.654Z,28.17
2023-04-27T23:42:54.635Z,31.02
2023-04-27T23:45:40.935Z,29.48
2023-04-27T23:48:27.474Z,30.58
2023-04-27T23:51:13.238Z,32.38
2023-04-27T23:53:59.277Z,32.35
2023-04-27T23:56:45.165Z,31.90
2023-04-27T23:59:35.521Z,33.92
